Gregorytown, New York
Current Conditions -  °F | °C
As of 12:15 PM on Saturday 20 Dec 2014 (Local Time) from KMSV Reporting Station
Overcast Overcast  
Wind Chill: 25°   Ceiling: 1500
Heat Index: 25°   Visibility: 10mi
Dew Point: 18°   Wind: 3mph
Humidity: 74%   Direction: 360°N
Pressure: 30.22"   Gusts: NA
Location:  42.0755°N, 75.0491°W
Report Text: KMSV 201715Z AUTO 36003KT 10SM OVC015 M04/M08 A3022 RMK AO1
Loading
Personal Weather Stations






























Interactive Weather Map New forecast layout! Learn more

10-Day Weather Forecast

Advertisements
Track Severe Weather on mobile